Time;durP1;ratioP1;P1;durP2;ratioP2;P2;SDS_P1;SDS_P2;PMS_P1;PMS_P2;Temp;Humidity;BMP_temperature;BMP_pressure;BME280_temperature;BME280_humidity;BME280_pressure;Samples;Min_cycle;Max_cycle;Signal;HPM_P1;HPM_P2
2022/07/22 00:00:50;;;;;;;8.45;2.58;;;;;;;15.61;85.13;102080.53;5030144;28;20425;-71
2022/07/22 00:03:16;;;;;;;9.70;3.08;;;;;;;15.63;85.52;102084.06;5046367;28;20044;-72
2022/07/22 00:05:41;;;;;;;6.78;2.88;;;;;;;15.66;85.71;102079.22;5030659;28;20021;-72
2022/07/22 00:08:06;;;;;;;7.20;3.00;;;;;;;15.69;85.91;102075.41;5030110;28;20749;-72
2022/07/22 00:10:31;;;;;;;8.75;2.83;;;;;;;15.69;85.15;102076.25;5044359;28;20500;-72
2022/07/22 00:12:57;;;;;;;6.40;2.80;;;;;;;15.70;85.68;102080.75;5040942;28;20465;-72
2022/07/22 00:15:22;;;;;;;6.70;3.33;;;;;;;15.70;85.63;102075.28;5014043;28;20463;-72
2022/07/22 00:17:48;;;;;;;9.18;2.83;;;;;;;15.72;85.80;102077.91;5012567;28;20037;-72
2022/07/22 00:20:13;;;;;;;7.53;2.75;;;;;;;15.73;85.94;102066.81;5029820;28;20041;-71
2022/07/22 00:22:38;;;;;;;7.80;3.00;;;;;;;15.73;85.55;102072.31;5020358;28;20704;-72
2022/07/22 00:25:04;;;;;;;7.07;2.92;;;;;;;15.75;85.97;102073.06;5046952;28;20044;-72
2022/07/22 00:27:29;;;;;;;9.98;3.20;;;;;;;15.75;85.85;102077.66;5026487;28;20033;-72
2022/07/22 00:29:55;;;;;;;8.43;3.38;;;;;;;15.76;85.76;102074.84;5043463;28;20122;-72
2022/07/22 00:32:20;;;;;;;6.82;3.40;;;;;;;15.75;85.82;102073.06;5045668;28;20087;-73
2022/07/22 00:34:46;;;;;;;10.68;4.00;;;;;;;15.75;85.74;102064.81;5047874;28;20396;-72
2022/07/22 00:37:11;;;;;;;9.45;3.97;;;;;;;15.73;85.89;102063.19;5042905;28;20051;-72
2022/07/22 00:39:37;;;;;;;8.93;4.10;;;;;;;15.76;85.57;102066.59;5047123;28;20139;-72
2022/07/22 00:42:03;;;;;;;9.55;3.53;;;;;;;15.76;86.08;102066.59;5040800;28;20021;-73
2022/07/22 00:44:28;;;;;;;8.68;4.22;;;;;;;15.75;86.22;102062.06;5027656;28;20037;-72
2022/07/22 00:46:54;;;;;;;10.32;3.53;;;;;;;15.72;85.72;102058.72;5041013;28;20037;-73
2022/07/22 00:49:19;;;;;;;10.50;3.95;;;;;;;15.78;86.95;102067.34;5041085;28;20113;-72
2022/07/22 00:51:46;;;;;;;10.80;3.60;;;;;;;15.79;86.18;102065.47;5044323;28;20432;-72
2022/07/22 00:54:12;;;;;;;11.30;4.03;;;;;;;15.74;86.38;102060.34;5028512;28;20033;-73
2022/07/22 00:56:37;;;;;;;6.15;3.75;;;;;;;15.75;86.25;102064.81;5044458;28;20076;-73
2022/07/22 00:59:07;;;;;;;10.13;4.70;;;;;;;15.77;86.49;102061.97;5037278;28;20143;-71
2022/07/22 01:01:32;;;;;;;11.50;3.50;;;;;;;15.77;86.37;102067.47;5026836;28;20033;-72
2022/07/22 01:03:58;;;;;;;9.52;4.00;;;;;;;15.74;87.37;102062.19;5029038;28;20022;-72
2022/07/22 01:06:24;;;;;;;8.77;4.10;;;;;;;15.71;85.97;102056.94;5027497;28;20029;-72
2022/07/22 01:08:49;;;;;;;11.23;3.58;;;;;;;15.69;86.18;102056.19;5027385;28;20119;-72
2022/07/22 01:11:18;;;;;;;7.68;3.92;;;;;;;15.67;85.70;102044.47;5028963;28;20041;-72
2022/07/22 01:13:45;;;;;;;8.40;3.65;;;;;;;15.67;85.63;102047.22;5044673;28;20041;-73
2022/07/22 01:16:12;;;;;;;9.93;3.78;;;;;;;15.63;86.24;102053.88;5034865;28;20033;-72
2022/07/22 01:18:38;;;;;;;8.90;3.72;;;;;;;15.60;85.63;102048.59;5029060;28;20057;-72
2022/07/22 01:21:05;;;;;;;9.75;3.53;;;;;;;15.54;86.03;102053.56;5029025;28;20033;-72
2022/07/22 01:23:31;;;;;;;10.50;3.58;;;;;;;15.50;86.00;102051.16;5027275;28;20091;-72
2022/07/22 01:25:56;;;;;;;10.43;3.78;;;;;;;15.45;85.93;102040.53;5027362;28;20496;-73
2022/07/22 01:28:23;;;;;;;10.32;3.50;;;;;;;15.36;85.25;102048.56;5027244;28;20033;-73
2022/07/22 01:30:52;;;;;;;9.07;3.95;;;;;;;15.25;86.40;102038.38;5028061;28;20026;-74
2022/07/22 01:33:21;;;;;;;9.48;3.30;;;;;;;15.20;85.77;102043.31;5043959;28;20032;-72
2022/07/22 01:35:48;;;;;;;8.55;3.35;;;;;;;15.14;86.18;102046.50;5059085;28;20570;-72
2022/07/22 01:38:14;;;;;;;9.77;3.90;;;;;;;15.09;85.57;102038.59;5047352;28;20037;-73
2022/07/22 01:40:41;;;;;;;5.25;3.10;;;;;;;15.02;85.77;102045.53;5015447;28;20033;-72
2022/07/22 01:43:07;;;;;;;8.77;3.40;;;;;;;14.93;85.87;102041.59;5038550;28;20218;-72
2022/07/22 01:45:33;;;;;;;5.43;3.28;;;;;;;14.89;85.91;102048.28;5023806;28;20461;-73
2022/07/22 01:47:59;;;;;;;9.88;3.08;;;;;;;14.85;85.77;102049.47;5026525;28;20040;-72
2022/07/22 01:50:25;;;;;;;9.32;2.92;;;;;;;14.73;85.58;102031.16;5027260;28;20029;-72
2022/07/22 01:52:50;;;;;;;9.57;3.67;;;;;;;14.78;85.83;102046.31;5026773;28;20047;-73
2022/07/22 01:55:16;;;;;;;7.10;3.40;;;;;;;14.74;86.23;102049.38;5027299;28;20040;-72
2022/07/22 01:57:42;;;;;;;8.07;3.35;;;;;;;14.72;86.38;102043.97;5043225;28;20059;-72
2022/07/22 02:00:22;;;;;;;7.07;3.10;;;;;;;14.74;85.91;102046.63;5043123;28;20037;-72
2022/07/22 02:02:48;;;;;;;7.20;2.65;;;;;;;14.72;85.79;102046.72;5028516;28;20421;-72
2022/07/22 02:05:14;;;;;;;8.25;3.67;;;;;;;14.74;85.97;102046.63;5026362;28;20087;-71
2022/07/22 02:07:40;;;;;;;10.48;3.08;;;;;;;14.72;86.63;102040.38;5026520;28;20294;-71
2022/07/22 02:10:06;;;;;;;6.65;3.00;;;;;;;14.73;86.34;102036.63;5043368;28;20069;-72
2022/07/22 02:12:33;;;;;;;9.27;3.05;;;;;;;14.74;86.75;102044.75;5025986;28;20106;-72
2022/07/22 02:14:59;;;;;;;6.00;3.42;;;;;;;14.76;87.12;102047.38;5041659;28;20041;-72
2022/07/22 02:17:26;;;;;;;8.30;2.95;;;;;;;14.79;86.99;102039.84;5026093;28;20034;-72
2022/07/22 02:19:52;;;;;;;11.05;4.15;;;;;;;14.83;86.99;102042.34;5042674;28;20052;-73
2022/07/22 02:22:17;;;;;;;7.47;3.47;;;;;;;14.84;87.72;102036.78;5026971;28;20041;-72
2022/07/22 02:24:46;;;;;;;12.32;3.78;;;;;;;14.87;87.71;102035.66;5041506;28;20030;-72
2022/07/22 02:27:12;;;;;;;6.63;3.80;;;;;;;14.86;87.78;102029.31;5010251;28;20434;-72
2022/07/22 02:29:38;;;;;;;11.07;4.50;;;;;;;14.91;87.65;102037.19;5025930;28;20036;-72
2022/07/22 02:32:04;;;;;;;16.35;5.30;;;;;;;14.91;87.92;102037.19;5009366;28;20040;-72
2022/07/22 02:34:29;;;;;;;13.65;4.60;;;;;;;14.91;88.06;102031.72;5042539;28;20037;-72
2022/07/22 02:36:54;;;;;;;12.77;4.38;;;;;;;14.89;88.65;102031.84;5009266;28;20041;-72
2022/07/22 02:39:20;;;;;;;6.47;2.92;;;;;;;14.91;88.01;102035.31;5026694;28;20492;-72
2022/07/22 02:41:45;;;;;;;11.68;3.97;;;;;;;14.90;88.39;102039.06;5027282;28;20498;-72
2022/07/22 02:44:11;;;;;;;12.13;4.15;;;;;;;14.92;88.37;102037.09;5041814;28;20366;-73
2022/07/22 02:46:36;;;;;;;8.60;4.28;;;;;;;14.93;87.90;102036.09;5027109;28;20123;-72
2022/07/22 02:49:10;;;;;;;7.50;3.75;;;;;;;14.94;88.08;102029.63;5026350;28;20191;-73
2022/07/22 02:51:36;;;;;;;7.93;4.00;;;;;;;14.97;88.46;102034.91;5026087;28;20033;-72
2022/07/22 02:54:02;;;;;;;10.30;4.07;;;;;;;14.98;88.05;102028.44;5028577;28;20562;-73
2022/07/22 02:56:28;;;;;;;10.13;4.18;;;;;;;14.98;88.70;102028.44;5041424;28;20111;-73
2022/07/22 02:58:54;;;;;;;10.07;4.07;;;;;;;14.99;88.47;102029.31;5011568;28;20017;-72
2022/07/22 03:01:20;;;;;;;9.02;3.83;;;;;;;15.01;88.61;102036.44;5025310;28;20034;-72
2022/07/22 03:03:52;;;;;;;13.02;3.80;;;;;;;15.02;87.91;102031.84;5026080;28;20129;-72
2022/07/22 03:06:20;;;;;;;11.27;4.85;;;;;;;15.03;87.55;102034.44;5043120;28;20030;-72
2022/07/22 03:09:19;;;;;;;8.13;4.38;;;;;;;15.04;87.83;102027.97;5020767;28;20048;-72
2022/07/22 03:11:45;;;;;;;10.48;4.47;;;;;;;15.02;88.57;102019.00;5027000;28;20180;-72
2022/07/22 03:14:11;;;;;;;7.30;4.00;;;;;;;15.03;87.98;102008.91;5045149;28;20392;-73
2022/07/22 03:16:37;;;;;;;13.60;5.18;;;;;;;15.02;88.08;102008.03;5031786;28;20044;-72
2022/07/22 03:19:02;;;;;;;7.47;4.28;;;;;;;15.04;88.32;102016.16;5043088;28;20555;-72
2022/07/22 03:21:28;;;;;;;8.05;3.80;;;;;;;15.02;88.57;102013.53;5041332;28;20084;-72
2022/07/22 03:23:53;;;;;;;9.68;4.60;;;;;;;15.02;87.92;102015.41;5042923;28;20025;-72
2022/07/22 03:26:20;;;;;;;14.05;4.72;;;;;;;15.02;88.40;102005.31;5026716;28;20030;-72
2022/07/22 03:28:46;;;;;;;8.93;3.92;;;;;;;15.01;88.51;102016.34;5042206;28;20044;-73
2022/07/22 03:31:12;;;;;;;12.65;4.50;;;;;;;15.01;89.09;102014.53;5026702;28;20029;-73
2022/07/22 03:33:38;;;;;;;12.57;4.97;;;;;;;14.97;89.02;102014.84;5029343;28;20534;-72
2022/07/22 03:36:05;;;;;;;16.25;5.00;;;;;;;14.95;89.69;102008.59;5046507;28;20087;-72
2022/07/22 03:38:31;;;;;;;8.23;4.32;;;;;;;14.93;89.71;102014.19;5042088;28;20500;-72
2022/07/22 03:40:57;;;;;;;7.78;4.20;;;;;;;14.93;88.92;102011.44;5029454;28;20060;-72
2022/07/22 03:43:23;;;;;;;10.25;4.30;;;;;;;14.94;88.70;102015.06;5047585;28;20032;-73
2022/07/22 03:45:49;;;;;;;16.42;5.05;;;;;;;14.94;88.73;102015.06;5028571;28;20030;-72
2022/07/22 03:48:14;;;;;;;7.97;4.20;;;;;;;14.95;88.72;102014.06;5046320;28;20037;-72
2022/07/22 03:50:40;;;;;;;12.75;4.20;;;;;;;14.96;88.97;102021.28;5021807;28;20477;-72
2022/07/22 03:53:05;;;;;;;7.72;4.22;;;;;;;14.95;88.95;102028.63;5028871;28;20021;-72
2022/07/22 03:55:33;;;;;;;7.05;3.85;;;;;;;14.97;89.13;102031.28;5029162;28;20548;-72
2022/07/22 03:57:59;;;;;;;6.85;4.07;;;;;;;14.94;89.44;102026.03;5045345;28;20128;-73
2022/07/22 04:00:28;;;;;;;7.03;4.03;;;;;;;14.95;89.17;102023.16;5029083;28;20060;-73
2022/07/22 04:02:54;;;;;;;7.03;3.95;;;;;;;14.97;88.61;102025.81;5028347;28;20034;-73
2022/07/22 04:05:30;;;;;;;10.30;4.00;;;;;;;14.97;88.41;102023.06;5029042;28;20485;-73
2022/07/22 04:07:57;;;;;;;7.00;4.07;;;;;;;14.97;88.48;102020.34;5044509;28;20033;-73
2022/07/22 04:10:23;;;;;;;11.57;4.43;;;;;;;15.00;88.34;102031.91;5028959;28;20476;-73
2022/07/22 04:12:48;;;;;;;12.75;3.85;;;;;;;15.01;88.90;102033.69;5030609;28;20057;-73
2022/07/22 04:15:39;;;;;;;8.90;4.40;;;;;;;15.02;88.95;102031.84;5024341;28;20132;-73
2022/07/22 04:18:05;;;;;;;8.85;4.45;;;;;;;15.04;89.27;102032.59;5029304;28;20128;-72
2022/07/22 04:20:30;;;;;;;12.80;4.30;;;;;;;15.05;88.63;102034.34;5028768;28;20048;-73
2022/07/22 04:23:18;;;;;;;9.45;4.15;;;;;;;15.09;88.53;102040.47;5029056;28;20037;-73
2022/07/22 04:25:44;;;;;;;13.18;4.68;;;;;;;15.10;89.21;102026.66;5027673;28;20113;-73
2022/07/22 04:28:09;;;;;;;10.85;3.92;;;;;;;15.13;88.78;102025.56;5028432;28;20081;-72
2022/07/22 04:30:36;;;;;;;12.80;4.32;;;;;;;15.15;89.35;102026.31;5028196;28;20048;-73
2022/07/22 04:33:01;;;;;;;12.00;4.93;;;;;;;15.16;89.16;102022.63;5012333;28;20025;-73
2022/07/22 04:35:27;;;;;;;11.43;4.70;;;;;;;15.14;88.50;102019.09;5011815;28;20433;-73
2022/07/22 04:38:05;;;;;;;15.48;4.43;;;;;;;15.23;88.98;102030.25;5044599;28;20042;-73
2022/07/22 04:40:31;;;;;;;11.32;4.22;;;;;;;15.27;89.01;102026.31;5011418;28;20044;-73
2022/07/22 04:42:57;;;;;;;11.90;5.13;;;;;;;15.32;89.04;102020.47;5030478;28;20029;-73
2022/07/22 04:45:22;;;;;;;15.10;5.70;;;;;;;15.32;89.37;102021.34;5045660;28;20468;-72
2022/07/22 04:47:49;;;;;;;9.15;4.82;;;;;;;15.36;89.05;102023.88;5030685;28;20033;-72
2022/07/22 04:50:15;;;;;;;11.75;5.05;;;;;;;15.34;89.38;102023.09;5012257;28;20033;-73
2022/07/22 04:52:41;;;;;;;14.68;5.13;;;;;;;15.40;88.79;102019.94;5043610;28;20404;-73
2022/07/22 04:55:06;;;;;;;15.85;5.15;;;;;;;15.44;88.93;102016.84;5044354;28;20026;-73
2022/07/22 04:57:32;;;;;;;12.55;5.90;;;;;;;15.48;89.32;102009.25;5039946;28;20033;-73
2022/07/22 04:59:58;;;;;;;15.40;5.53;;;;;;;15.54;89.09;102009.69;5039250;28;20105;-73
2022/07/22 05:02:24;;;;;;;14.45;5.70;;;;;;;15.59;88.38;102011.19;5041571;28;20064;-73
2022/07/22 05:04:49;;;;;;;11.00;5.30;;;;;;;15.64;87.97;102017.25;5047958;28;20036;-72
2022/07/22 05:07:15;;;;;;;17.75;5.88;;;;;;;15.72;87.30;102018.44;5047470;28;20050;-73
2022/07/22 05:09:41;;;;;;;9.80;5.28;;;;;;;15.77;87.58;102018.09;5045383;28;20527;-72
2022/07/22 05:12:10;;;;;;;13.55;6.30;;;;;;;15.84;87.11;102011.13;5040542;28;20098;-72
2022/07/22 05:14:35;;;;;;;14.27;6.65;;;;;;;15.91;87.36;102012.41;5027097;28;20112;-72
2022/07/22 05:17:00;;;;;;;10.60;5.95;;;;;;;15.95;86.93;102004.84;5043456;28;20510;-73
2022/07/22 05:19:26;;;;;;;12.32;6.88;;;;;;;16.04;87.13;102007.75;5043535;28;20037;-72
2022/07/22 05:21:51;;;;;;;13.20;5.93;;;;;;;16.14;86.45;102007.91;5043991;28;20053;-73
2022/07/22 05:24:18;;;;;;;9.98;6.25;;;;;;;16.24;86.37;102010.81;5026915;28;20033;-73
2022/07/22 05:26:45;;;;;;;14.25;6.53;;;;;;;16.33;86.01;102002.72;5028593;28;20042;-73
2022/07/22 05:29:10;;;;;;;14.18;6.05;;;;;;;16.43;85.56;102013.00;5044309;28;20032;-73
2022/07/22 05:31:35;;;;;;;12.68;7.07;;;;;;;16.50;86.36;102014.25;5033040;28;20484;-73
2022/07/22 05:34:03;;;;;;;13.80;5.78;;;;;;;16.58;86.00;102011.78;5045522;28;20432;-73
2022/07/22 05:36:32;;;;;;;15.85;7.07;;;;;;;16.65;84.99;102003.94;5045739;28;20052;-73
2022/07/22 05:38:57;;;;;;;12.88;6.43;;;;;;;16.70;85.25;102008.06;5046137;28;20029;-73
2022/07/22 05:41:22;;;;;;;17.00;6.90;;;;;;;16.74;84.41;102011.44;5039100;28;20422;-73
2022/07/22 05:43:48;;;;;;;15.00;6.57;;;;;;;16.79;84.21;102010.13;5056853;28;20081;-73
2022/07/22 05:46:13;;;;;;;16.23;6.78;;;;;;;16.88;84.04;102015.84;5032410;28;20026;-72
2022/07/22 05:48:41;;;;;;;10.80;6.65;;;;;;;16.94;84.04;102016.25;5027730;28;20037;-72
2022/07/22 05:51:15;;;;;;;13.93;7.07;;;;;;;17.08;84.10;102020.63;5042793;28;20447;-72
2022/07/22 05:53:42;;;;;;;16.02;6.63;;;;;;;17.14;83.17;102016.50;5061039;28;20347;-73
2022/07/22 05:56:10;;;;;;;15.35;7.05;;;;;;;17.22;84.40;102020.38;5041881;28;20416;-72
2022/07/22 05:58:35;;;;;;;12.88;6.93;;;;;;;17.22;83.54;102019.50;5042580;28;20048;-72
2022/07/22 06:01:01;;;;;;;14.73;7.00;;;;;;;17.27;83.49;102012.63;5042155;28;20033;-73
2022/07/22 06:03:26;;;;;;;12.90;6.60;;;;;;;17.28;83.38;102010.75;5045502;28;20033;-72
2022/07/22 06:05:52;;;;;;;17.17;6.60;;;;;;;17.35;82.93;102014.75;5028059;28;20036;-73
2022/07/22 06:08:18;;;;;;;14.40;6.60;;;;;;;17.38;81.93;102002.59;5041979;28;20127;-73
2022/07/22 06:10:49;;;;;;;10.10;5.30;;;;;;;17.48;82.22;102009.06;5044071;28;20041;-73
2022/07/22 06:13:15;;;;;;;18.20;6.10;;;;;;;17.58;82.70;102021.09;5044715;28;20104;-73
2022/07/22 06:15:41;;;;;;;17.95;6.28;;;;;;;17.61;80.95;102009.81;5040546;28;20037;-73
2022/07/22 06:18:07;;;;;;;13.10;6.18;;;;;;;17.73;80.16;102016.19;5018368;28;20033;-72
2022/07/22 06:20:32;;;;;;;13.45;5.57;;;;;;;17.90;81.37;102020.28;5045549;28;20063;-73
2022/07/22 06:22:58;;;;;;;12.27;4.93;;;;;;;17.83;76.91;102018.06;5044291;28;20036;-73
2022/07/22 06:25:23;;;;;;;11.20;5.15;;;;;;;17.79;78.95;102015.69;5044874;28;20033;-73
2022/07/22 06:27:49;;;;;;;10.48;4.85;;;;;;;17.88;79.13;102016.78;5046089;28;20392;-72
2022/07/22 06:30:14;;;;;;;11.00;5.03;;;;;;;18.01;79.97;102010.13;5038637;28;20187;-72
2022/07/22 06:32:40;;;;;;;13.57;5.10;;;;;;;18.19;79.59;102012.31;5044182;28;20036;-72
2022/07/22 06:35:06;;;;;;;8.57;4.28;;;;;;;18.30;78.09;102006.72;5045428;28;20397;-73
2022/07/22 06:37:31;;;;;;;12.48;4.53;;;;;;;18.22;75.35;102012.88;5029258;28;20098;-73
2022/07/22 06:39:57;;;;;;;12.55;4.63;;;;;;;18.23;74.33;102011.00;5043455;28;20435;-73
2022/07/22 06:42:30;;;;;;;9.63;3.80;;;;;;;18.31;74.77;102014.84;5028686;28;20108;-73
2022/07/22 06:45:14;;;;;;;11.77;4.15;;;;;;;18.50;76.24;102011.38;5039995;28;20044;-74
2022/07/22 06:48:00;;;;;;;10.48;3.58;;;;;;;18.66;75.24;102007.28;5026911;28;20052;-73
2022/07/22 06:50:26;;;;;;;6.75;3.38;;;;;;;18.67;71.06;102012.66;5045439;28;20036;-73
2022/07/22 06:52:52;;;;;;;7.47;2.88;;;;;;;18.50;69.62;102008.59;5045831;28;20029;-73
2022/07/22 06:55:18;;;;;;;5.45;2.92;;;;;;;18.46;70.76;102007.13;5027995;28;20025;-74
2022/07/22 06:57:53;;;;;;;6.43;2.80;;;;;;;18.34;69.95;102017.34;5029000;28;20120;-74
2022/07/22 07:00:18;;;;;;;8.38;2.10;;;;;;;18.35;70.22;102015.47;5040343;28;20148;-73
2022/07/22 07:03:04;;;;;;;6.68;2.28;;;;;;;18.61;70.46;102013.19;5045090;28;20037;-73
2022/07/22 07:05:30;;;;;;;7.50;2.85;;;;;;;18.75;69.90;102018.41;5045697;28;20024;-73
2022/07/22 07:07:56;;;;;;;5.78;2.60;;;;;;;18.88;68.70;102006.25;5063071;28;20013;-74
2022/07/22 07:10:21;;;;;;;7.47;2.45;;;;;;;18.98;69.38;102010.84;5029254;28;20129;-74
2022/07/22 07:12:57;;;;;;;7.20;3.60;;;;;;;18.82;68.49;102002.19;5036205;28;20061;-74
2022/07/22 07:15:29;;;;;;;8.15;3.53;;;;;;;18.73;69.07;102003.84;5038181;28;20035;-74
2022/07/22 07:18:03;;;;;;;6.20;2.80;;;;;;;18.74;68.96;102002.84;5031218;28;20151;-74
2022/07/22 07:20:29;;;;;;;4.68;3.05;;;;;;;18.76;67.70;102002.72;5039428;28;20490;-74
2022/07/22 07:22:54;;;;;;;5.38;2.80;;;;;;;18.77;69.27;101998.97;5023009;28;20029;-74
2022/07/22 07:25:20;;;;;;;7.25;2.65;;;;;;;19.09;70.17;101991.44;5015370;28;20045;-72
2022/07/22 07:27:46;;;;;;;3.33;2.60;;;;;;;19.18;67.75;101992.47;5044708;28;20033;-74
2022/07/22 07:30:13;;;;;;;6.72;2.35;;;;;;;19.03;64.90;101991.13;5056754;28;20112;-74
2022/07/22 07:32:39;;;;;;;4.80;2.22;;;;;;;18.81;65.98;101994.91;5055553;28;20049;-74
2022/07/22 07:35:05;;;;;;;6.03;2.72;;;;;;;18.87;67.62;101997.13;5036525;28;20610;-74
2022/07/22 07:37:32;;;;;;;6.65;2.40;;;;;;;18.88;66.00;102003.50;5016443;28;20103;-74
2022/07/22 07:39:58;;;;;;;4.72;2.55;;;;;;;18.97;67.23;101995.28;5030549;28;20041;-74
2022/07/22 07:42:24;;;;;;;4.55;2.30;;;;;;;18.86;66.65;102007.28;5048083;28;20450;-74
2022/07/22 07:44:50;;;;;;;6.78;2.30;;;;;;;18.72;66.37;101992.97;5028845;28;20688;-74
2022/07/22 07:47:17;;;;;;;4.63;2.20;;;;;;;18.81;68.91;101994.91;5030066;28;20037;-73
2022/07/22 07:49:44;;;;;;;4.53;2.50;;;;;;;18.76;67.80;101992.56;5047164;28;20035;-74
2022/07/22 07:52:12;;;;;;;11.30;2.90;;;;;;;18.67;67.58;101990.59;5048587;28;20531;-74
2022/07/22 07:54:39;;;;;;;7.55;3.40;;;;;;;18.66;67.88;101994.38;5066238;28;20138;-74
2022/07/22 07:57:05;;;;;;;8.40;3.28;;;;;;;18.66;67.09;101996.25;5046680;28;20035;-74
2022/07/22 07:59:31;;;;;;;5.40;2.72;;;;;;;18.57;66.81;101996.06;5030536;28;20108;-74
2022/07/22 08:02:00;;;;;;;5.93;2.17;;;;;;;18.68;64.83;102000.59;5044762;28;20029;-74
2022/07/22 08:04:28;;;;;;;5.60;2.22;;;;;;;19.14;68.78;101990.16;5028817;28;20033;-74
2022/07/22 08:06:53;;;;;;;5.93;2.53;;;;;;;19.67;66.84;101988.00;5031073;28;20521;-74
2022/07/22 08:09:18;;;;;;;4.13;1.50;;;;;;;19.89;58.87;101992.41;5048643;28;20029;-75
2022/07/22 08:11:44;;;;;;;3.85;1.75;;;;;;;19.85;58.92;101991.81;5045204;28;20140;-75
2022/07/22 08:14:39;;;;;;;2.90;1.33;;;;;;;20.51;56.05;101987.47;5024617;28;20083;-75
2022/07/22 08:17:22;;;;;;;1.63;1.02;;;;;;;20.97;60.39;101994.03;5034420;28;20460;-75
2022/07/22 08:19:48;;;;;;;1.83;1.30;;;;;;;21.07;55.09;101984.66;5045669;28;20560;-75
2022/07/22 08:22:14;;;;;;;3.92;1.40;;;;;;;21.12;55.79;101985.13;5042275;28;20062;-74
2022/07/22 08:24:41;;;;;;;2.17;1.20;;;;;;;21.34;55.40;101985.75;5047658;28;20040;-75
2022/07/22 08:27:11;;;;;;;2.45;1.10;;;;;;;21.65;58.34;101991.84;5048427;28;20044;-75
2022/07/22 08:29:36;;;;;;;2.78;1.60;;;;;;;21.89;58.56;101992.13;5052075;28;20026;-75
2022/07/22 08:32:02;;;;;;;3.85;1.42;;;;;;;21.75;55.46;101989.88;5034536;28;20021;-74
2022/07/22 08:34:28;;;;;;;3.85;1.50;;;;;;;21.62;57.42;101987.47;5064297;28;20043;-74
2022/07/22 08:36:53;;;;;;;5.28;1.80;;;;;;;21.37;55.88;101991.00;5046882;28;20049;-75
2022/07/22 08:39:19;;;;;;;3.67;1.30;;;;;;;21.11;56.74;101986.13;5032140;28;20067;-74
2022/07/22 08:41:44;;;;;;;3.88;1.83;;;;;;;20.95;56.88;101980.38;5046114;28;20554;-75
2022/07/22 08:44:10;;;;;;;4.68;1.45;;;;;;;20.92;58.42;101977.91;5043025;28;20233;-75
2022/07/22 08:46:36;;;;;;;2.83;1.33;;;;;;;21.02;58.08;101972.31;5042238;28;20104;-74
2022/07/22 08:49:21;;;;;;;3.92;1.65;;;;;;;20.71;56.84;101969.81;5047684;28;20498;-75
2022/07/22 08:52:19;;;;;;;4.80;1.65;;;;;;;20.91;60.14;101975.28;5030538;28;20079;-75
2022/07/22 08:54:48;;;;;;;4.35;1.60;;;;;;;20.66;56.11;101979.56;5030521;28;20041;-75
2022/07/22 08:57:17;;;;;;;4.03;2.00;;;;;;;20.58;56.83;101977.56;5047252;28;20025;-74
2022/07/22 08:59:57;;;;;;;5.40;1.77;;;;;;;20.28;57.10;101973.91;5045447;28;20491;-75
2022/07/22 09:02:24;;;;;;;6.57;2.38;;;;;;;20.35;58.56;101972.31;5029205;28;20346;-75
2022/07/22 09:05:00;;;;;;;2.38;1.45;;;;;;;20.94;58.98;101973.09;5031390;28;20508;-75
2022/07/22 09:07:40;;;;;;;6.18;1.80;;;;;;;21.56;61.65;101978.94;5029490;28;20036;-74
2022/07/22 09:10:19;;;;;;;3.78;1.52;;;;;;;22.27;57.56;101978.13;5051127;28;20026;-75
2022/07/22 09:13:07;;;;;;;2.05;1.40;;;;;;;22.79;58.36;101986.50;5040919;28;20048;-74
2022/07/22 09:15:54;;;;;;;5.78;2.13;;;;;;;23.22;54.58;101974.44;5043327;28;20052;-76
2022/07/22 09:18:48;;;;;;;9.57;1.73;;;;;;;23.74;54.99;101970.69;5046246;28;20075;-75
2022/07/22 09:21:29;;;;;;;7.72;1.95;;;;;;;24.17;54.17;101975.97;5046263;28;20045;-75
2022/07/22 09:24:24;;;;;;;4.45;2.03;;;;;;;24.38;50.79;101964.34;5043957;28;20036;-75
2022/07/22 09:26:54;;;;;;;5.20;1.88;;;;;;;24.29;49.62;101965.34;5029801;28;20067;-75
2022/07/22 09:29:36;;;;;;;6.45;1.90;;;;;;;24.51;51.52;101962.94;5042246;28;20044;-75
2022/07/22 09:32:14;;;;;;;4.07;1.63;;;;;;;24.98;50.33;101962.16;5027823;28;20036;-74
2022/07/22 09:35:01;;;;;;;4.18;1.80;;;;;;;25.51;51.54;101957.78;5044093;28;20133;-75
2022/07/22 09:37:27;;;;;;;4.47;2.10;;;;;;;25.48;50.70;101955.38;5027888;28;20079;-74
2022/07/22 09:39:52;;;;;;;5.55;2.10;;;;;;;25.17;47.35;101956.19;5047395;28;20716;-75
2022/07/22 09:42:18;;;;;;;3.55;2.10;;;;;;;25.02;49.49;101956.06;5028571;28;20033;-74
2022/07/22 09:44:46;;;;;;;4.25;2.00;;;;;;;25.04;48.16;101947.50;5044013;28;20099;-75
2022/07/22 09:47:29;;;;;;;5.25;1.95;;;;;;;24.63;47.44;101936.50;5028735;28;20033;-74
2022/07/22 09:50:28;;;;;;;3.67;1.92;;;;;;;24.32;52.33;101941.88;5029364;28;20052;-75
2022/07/22 09:53:12;;;;;;;4.38;2.10;;;;;;;23.91;49.03;101942.75;5028146;28;20045;-74
2022/07/22 09:55:43;;;;;;;4.00;1.85;;;;;;;24.09;50.11;101939.81;5026402;28;20503;-74
2022/07/22 09:58:08;;;;;;;5.95;2.05;;;;;;;24.69;53.44;101938.56;5043410;28;20113;-74
2022/07/22 10:00:36;;;;;;;4.47;2.47;;;;;;;25.00;49.79;101941.47;5039193;28;20413;-73
2022/07/22 10:03:05;;;;;;;3.65;2.25;;;;;;;25.30;48.96;101944.50;5050335;28;20482;-74
2022/07/22 10:05:35;;;;;;;3.17;1.90;;;;;;;25.26;49.67;101949.56;5049764;28;20036;-74
2022/07/22 10:08:03;;;;;;;4.90;2.40;;;;;;;24.74;45.06;101943.59;5061667;28;20033;-73
2022/07/22 10:10:30;;;;;;;4.88;2.63;;;;;;;23.88;47.51;101950.56;5043960;28;20125;-74
2022/07/22 10:12:58;;;;;;;3.17;2.22;;;;;;;23.73;51.47;101958.69;5044670;28;20025;-73
2022/07/22 10:15:26;;;;;;;4.60;2.30;;;;;;;24.04;51.65;101963.63;5025100;28;20040;-73
2022/07/22 10:17:54;;;;;;;7.35;3.10;;;;;;;23.80;47.34;101954.19;5029711;28;20116;-75
2022/07/22 10:20:25;;;;;;;5.88;3.05;;;;;;;23.42;48.59;101950.94;5029702;28;20508;-74
2022/07/22 10:22:58;;;;;;;5.68;2.60;;;;;;;23.41;49.83;101953.91;5043280;28;20040;-74
2022/07/22 10:25:26;;;;;;;6.53;2.47;;;;;;;23.59;51.95;101957.41;5037824;28;20508;-73
2022/07/22 10:27:57;;;;;;;5.20;2.45;;;;;;;23.75;49.24;101958.53;5042093;28;20041;-74
2022/07/22 10:30:28;;;;;;;7.10;2.95;;;;;;;24.21;52.04;101959.81;5032520;28;20572;-74
2022/07/22 10:33:20;;;;;;;7.43;3.35;;;;;;;24.93;50.84;101963.56;5036729;28;20540;-73
2022/07/22 10:36:02;;;;;;;4.20;3.13;;;;;;;25.41;48.25;101949.66;5009816;28;20030;-74
2022/07/22 10:38:28;;;;;;;;;;;;;;;25.77;49.97;101954.72;5024129;28;20057;-74
2022/07/22 10:41:02;;;;;;;4.90;3.53;;;;;;;25.57;46.21;101955.16;5034092;28;19917;-73
2022/07/22 10:43:43;;;;;;;8.10;3.85;;;;;;;25.57;46.44;101946.78;5030034;28;20506;-74
2022/07/22 10:46:09;;;;;;;7.70;4.03;;;;;;;25.47;44.63;101948.94;5043313;28;20025;-75
2022/07/22 10:48:37;;;;;;;5.07;3.28;;;;;;;25.33;47.72;101944.13;5046279;28;20060;-74
2022/07/22 10:51:07;;;;;;;5.75;3.83;;;;;;;25.18;43.61;101941.22;5028615;28;20087;-73
2022/07/22 10:53:52;;;;;;;3.67;2.88;;;;;;;25.25;48.63;101942.25;5041695;28;20106;-73
2022/07/22 10:56:26;;;;;;;6.25;3.42;;;;;;;25.17;45.32;101945.06;5024837;28;20116;-72
2022/07/22 10:58:58;;;;;;;8.07;4.00;;;;;;;25.09;45.95;101934.84;5039482;28;20140;-73
2022/07/22 11:01:27;;;;;;;7.65;3.42;;;;;;;25.27;47.32;101931.78;5035622;28;20555;-72
2022/07/22 11:03:53;;;;;;;9.95;4.00;;;;;;;25.53;45.69;101934.28;5030852;28;20493;-74
2022/07/22 11:06:24;;;;;;;8.35;4.32;;;;;;;25.65;47.57;101929.16;5034317;28;20485;-73
2022/07/22 11:08:53;;;;;;;7.97;5.28;;;;;;;25.19;41.56;101929.06;5044244;28;20084;-75
2022/07/22 11:11:33;;;;;;;10.73;4.70;;;;;;;24.64;45.12;101927.09;5042026;28;20083;-73
2022/07/22 11:13:59;;;;;;;6.22;4.45;;;;;;;24.67;44.74;101935.13;5051492;28;20037;-72
2022/07/22 11:16:27;;;;;;;6.53;4.32;;;;;;;24.82;46.06;101924.97;5032100;28;20044;-72
2022/07/22 11:18:57;;;;;;;6.22;4.20;;;;;;;25.11;47.12;101927.16;5048385;28;20500;-73
2022/07/22 11:21:25;;;;;;;6.18;4.00;;;;;;;25.16;45.79;101923.84;5049572;28;20040;-72
2022/07/22 11:23:53;;;;;;;11.25;4.95;;;;;;;24.96;43.12;101925.28;5049545;28;20061;-74
2022/07/22 11:26:25;;;;;;;7.80;4.47;;;;;;;24.77;45.87;101919.06;5044698;28;20457;-72
2022/07/22 11:28:51;;;;;;;9.70;4.50;;;;;;;24.68;45.16;101922.94;5060292;28;20047;-72